createdAt,value
2023-04-30T00:01:28.754Z,5.90
2023-04-30T00:03:56.293Z,6.00
2023-04-30T00:06:23.350Z,6.10
2023-04-30T00:08:50.381Z,5.60
2023-04-30T00:11:17.352Z,6.30
2023-04-30T00:13:44.447Z,6.10
2023-04-30T00:16:11.433Z,5.60
2023-04-30T00:18:39.015Z,5.80
2023-04-30T00:21:06.043Z,6.20
2023-04-30T00:23:33.042Z,6.40
2023-04-30T00:26:00.088Z,6.80
2023-04-30T00:28:27.172Z,6.30
2023-04-30T00:30:54.154Z,6.50
2023-04-30T00:33:21.319Z,5.80
2023-04-30T00:35:48.508Z,5.70
2023-04-30T00:38:15.548Z,5.80
2023-04-30T00:40:43.310Z,5.40
2023-04-30T00:43:10.288Z,5.30
2023-04-30T00:45:37.275Z,5.40
2023-04-30T00:48:04.429Z,5.00
2023-04-30T00:50:31.436Z,4.80
2023-04-30T00:52:59.694Z,4.30
2023-04-30T00:55:27.055Z,4.60
2023-04-30T00:57:54.451Z,4.40
2023-04-30T01:00:22.118Z,4.60
2023-04-30T01:02:49.950Z,4.40
2023-04-30T01:05:17.120Z,4.40
2023-04-30T01:07:46.497Z,4.80
2023-04-30T01:10:14.286Z,4.80
2023-04-30T01:12:44.324Z,4.50
2023-04-30T01:15:36.427Z,4.90
2023-04-30T01:18:09.274Z,4.60
2023-04-30T01:23:27.221Z,4.20
2023-04-30T01:26:07.017Z,4.70
2023-04-30T01:28:35.901Z,5.40
2023-04-30T01:31:02.983Z,5.10
2023-04-30T01:33:29.910Z,5.40
2023-04-30T01:36:21.937Z,4.80
2023-04-30T01:39:04.187Z,5.20
2023-04-30T01:42:01.794Z,4.80
2023-04-30T01:44:37.955Z,4.90
2023-04-30T01:47:06.612Z,4.60
2023-04-30T01:50:12.363Z,5.00
2023-04-30T01:52:46.458Z,4.70
2023-04-30T01:55:27.784Z,4.20
2023-04-30T01:57:59.810Z,4.40
2023-04-30T02:00:27.807Z,4.30
2023-04-30T02:02:55.940Z,4.10
2023-04-30T02:05:23.147Z,4.40
2023-04-30T02:07:51.108Z,4.10
2023-04-30T02:10:20.657Z,4.20
2023-04-30T02:12:48.868Z,4.10
2023-04-30T02:15:16.197Z,4.60
2023-04-30T02:17:43.239Z,3.90
2023-04-30T02:20:10.843Z,3.90
2023-04-30T02:22:38.950Z,4.10
2023-04-30T02:25:06.313Z,4.30
2023-04-30T02:27:33.405Z,4.50
2023-04-30T02:30:00.596Z,4.10
2023-04-30T02:32:27.715Z,4.10
2023-04-30T02:34:54.767Z,4.00
2023-04-30T02:37:21.912Z,4.30
2023-04-30T02:39:49.109Z,3.80
2023-04-30T02:42:16.660Z,3.90
2023-04-30T02:44:43.819Z,4.10
2023-04-30T02:47:11.150Z,4.10
2023-04-30T02:49:38.271Z,5.00
2023-04-30T02:52:05.403Z,4.50
2023-04-30T02:54:32.421Z,4.10
2023-04-30T02:56:59.462Z,4.10
2023-04-30T02:59:27.377Z,3.90
2023-04-30T03:01:54.463Z,4.10
2023-04-30T03:04:21.462Z,4.20
2023-04-30T03:06:48.461Z,4.00
2023-04-30T03:09:15.573Z,4.70
2023-04-30T03:11:42.540Z,4.20
2023-04-30T03:14:09.489Z,4.40
2023-04-30T03:16:36.870Z,4.40
2023-04-30T03:19:03.968Z,4.50
2023-04-30T03:21:31.161Z,4.10
2023-04-30T03:23:58.139Z,3.90
2023-04-30T03:26:25.204Z,3.90
2023-04-30T03:28:55.229Z,3.50
2023-04-30T03:31:22.230Z,3.30
2023-04-30T03:33:49.462Z,3.60
2023-04-30T03:36:16.611Z,3.50
2023-04-30T03:38:43.593Z,3.40
2023-04-30T03:41:11.099Z,3.20
2023-04-30T03:43:38.249Z,4.00
2023-04-30T03:46:05.547Z,3.40
2023-04-30T03:48:32.599Z,3.60
2023-04-30T03:50:59.562Z,3.50
2023-04-30T03:53:26.909Z,3.40
2023-04-30T03:55:54.062Z,3.50
2023-04-30T03:58:21.564Z,3.30
2023-04-30T04:00:48.707Z,3.30
2023-04-30T04:03:16.246Z,3.60
2023-04-30T04:05:43.305Z,3.20
2023-04-30T04:08:10.481Z,3.50
2023-04-30T04:10:39.266Z,3.30
2023-04-30T04:13:09.424Z,3.40
2023-04-30T04:15:36.607Z,3.20
2023-04-30T04:18:03.951Z,3.30
2023-04-30T04:20:32.501Z,3.80
2023-04-30T04:22:59.613Z,3.30
2023-04-30T04:25:27.684Z,3.30
2023-04-30T04:27:54.754Z,3.60
2023-04-30T04:30:21.886Z,3.80
2023-04-30T04:32:54.145Z,3.40
2023-04-30T04:35:21.471Z,3.70
2023-04-30T04:37:48.590Z,3.60
2023-04-30T04:40:15.692Z,3.60
2023-04-30T04:42:42.776Z,3.50
2023-04-30T04:45:10.117Z,3.70
2023-04-30T04:47:37.970Z,3.60
2023-04-30T04:50:05.332Z,3.00
2023-04-30T04:52:32.323Z,3.10
2023-04-30T04:54:59.239Z,3.20
2023-04-30T04:57:26.489Z,3.80
2023-04-30T04:59:53.920Z,3.60
2023-04-30T05:02:23.570Z,3.10
2023-04-30T05:04:51.318Z,3.20
2023-04-30T05:07:19.087Z,3.00
2023-04-30T05:09:49.373Z,3.10
2023-04-30T05:12:16.384Z,3.60
2023-04-30T05:14:44.079Z,3.10
2023-04-30T05:17:11.228Z,3.50
2023-04-30T05:19:38.197Z,3.10
2023-04-30T05:22:05.478Z,2.70
2023-04-30T05:24:32.544Z,3.20
2023-04-30T05:26:59.617Z,2.70
2023-04-30T05:29:26.800Z,2.80
2023-04-30T05:31:54.802Z,3.10
2023-04-30T05:34:21.911Z,2.60
2023-04-30T05:36:50.190Z,3.70
2023-04-30T05:39:17.209Z,2.90
2023-04-30T05:41:44.350Z,2.70
2023-04-30T05:44:11.325Z,3.50
2023-04-30T05:46:38.285Z,3.30
2023-04-30T05:49:05.856Z,3.00
2023-04-30T05:51:32.951Z,3.00
2023-04-30T05:54:00.520Z,2.70
2023-04-30T05:56:27.687Z,3.00
2023-04-30T05:58:54.708Z,2.60
2023-04-30T06:01:23.378Z,2.40
2023-04-30T06:03:50.563Z,2.90
2023-04-30T06:06:17.587Z,2.70
2023-04-30T06:08:45.618Z,3.20
2023-04-30T06:11:13.250Z,2.30
2023-04-30T06:13:40.582Z,2.70
2023-04-30T06:16:08.520Z,3.20
2023-04-30T06:18:35.855Z,3.00
2023-04-30T06:21:02.805Z,2.40
2023-04-30T06:23:29.988Z,2.30
2023-04-30T06:25:57.095Z,2.40
2023-04-30T06:28:24.045Z,2.80
2023-04-30T06:30:52.032Z,2.20
2023-04-30T06:33:19.167Z,2.20
2023-04-30T06:35:46.615Z,2.10
2023-04-30T06:38:14.287Z,2.20
2023-04-30T06:40:41.291Z,2.60
2023-04-30T06:43:08.350Z,2.40
2023-04-30T06:45:35.748Z,2.60
2023-04-30T06:48:02.879Z,2.00
2023-04-30T06:50:29.993Z,2.00
2023-04-30T06:52:56.997Z,2.90
2023-04-30T06:55:24.498Z,2.10
2023-04-30T06:57:51.457Z,2.40
2023-04-30T07:00:18.748Z,2.00
2023-04-30T07:02:47.997Z,1.70
2023-04-30T07:05:16.672Z,1.90
2023-04-30T07:07:43.849Z,2.00
2023-04-30T07:10:11.003Z,1.70
2023-04-30T07:12:38.006Z,2.50
2023-04-30T07:15:05.367Z,2.20
2023-04-30T07:17:32.494Z,1.90
2023-04-30T07:19:59.665Z,2.00
2023-04-30T07:22:27.956Z,2.10
2023-04-30T07:24:55.506Z,2.10
2023-04-30T07:27:22.423Z,2.10
2023-04-30T07:29:49.384Z,1.80
2023-04-30T07:32:16.554Z,1.90
2023-04-30T07:34:43.571Z,2.10
2023-04-30T07:37:10.643Z,1.90
2023-04-30T07:39:37.694Z,2.00
2023-04-30T07:42:04.885Z,2.20
2023-04-30T07:44:31.877Z,2.20
2023-04-30T07:46:58.857Z,1.70
2023-04-30T07:49:26.069Z,2.20
2023-04-30T07:51:53.082Z,2.60
2023-04-30T07:54:20.144Z,2.70
2023-04-30T07:56:49.013Z,1.90
2023-04-30T07:59:16.181Z,2.00
2023-04-30T08:01:43.206Z,1.70
2023-04-30T08:04:10.748Z,2.60
2023-04-30T08:06:39.550Z,2.30
2023-04-30T08:09:06.568Z,1.90
2023-04-30T08:11:33.708Z,2.10
2023-04-30T08:14:00.849Z,2.10
2023-04-30T08:16:27.830Z,2.10
2023-04-30T08:18:54.880Z,1.90
2023-04-30T08:21:21.868Z,2.20
2023-04-30T08:23:50.171Z,1.70
2023-04-30T08:26:18.159Z,1.70
2023-04-30T08:28:45.152Z,1.70
2023-04-30T08:31:12.865Z,2.20
2023-04-30T08:33:41.268Z,2.30
2023-04-30T08:36:08.249Z,2.00
2023-04-30T08:38:35.206Z,2.80
2023-04-30T08:41:13.836Z,1.90
2023-04-30T08:43:41.684Z,2.20
2023-04-30T08:46:08.813Z,1.90
2023-04-30T08:48:35.871Z,2.50
2023-04-30T08:51:03.573Z,2.20
2023-04-30T08:53:31.582Z,1.90
2023-04-30T08:55:58.654Z,2.10
2023-04-30T08:58:25.840Z,2.10
2023-04-30T09:00:53.013Z,1.70
2023-04-30T09:03:22.352Z,1.90
2023-04-30T09:05:49.443Z,2.60
2023-04-30T09:08:20.420Z,2.80
2023-04-30T09:10:47.423Z,2.70
2023-04-30T09:13:14.474Z,2.40
2023-04-30T09:15:42.277Z,2.10
2023-04-30T09:18:14.594Z,1.70
2023-04-30T09:20:58.480Z,3.20
2023-04-30T09:23:25.818Z,2.60
2023-04-30T09:25:52.908Z,4.20
2023-04-30T09:28:23.859Z,2.70
2023-04-30T09:30:51.166Z,2.80
2023-04-30T09:33:18.366Z,3.00
2023-04-30T09:35:46.689Z,2.20
2023-04-30T09:38:32.703Z,1.90
2023-04-30T09:41:01.646Z,2.30
2023-04-30T09:43:29.759Z,2.40
2023-04-30T09:45:58.642Z,4.20
2023-04-30T09:48:29.504Z,4.70
2023-04-30T09:50:56.953Z,4.10
2023-04-30T09:53:24.406Z,3.40
2023-04-30T09:55:51.722Z,2.70
2023-04-30T09:58:19.170Z,2.30
2023-04-30T10:00:48.457Z,1.90
2023-04-30T10:03:16.259Z,2.00
2023-04-30T10:05:48.682Z,2.70
2023-04-30T10:08:28.859Z,2.50
2023-04-30T10:11:01.375Z,2.30
2023-04-30T10:13:31.492Z,2.30
2023-04-30T10:16:04.811Z,2.40
2023-04-30T10:18:37.499Z,2.00
2023-04-30T10:21:10.451Z,1.90
2023-04-30T10:23:43.930Z,1.70
2023-04-30T10:26:12.596Z,2.40
2023-04-30T10:28:40.841Z,2.30
2023-04-30T10:31:10.877Z,1.90
2023-04-30T10:33:54.519Z,2.00
2023-04-30T10:36:31.944Z,2.30
2023-04-30T10:38:58.909Z,3.80
2023-04-30T10:41:27.469Z,3.30
2023-04-30T10:44:02.104Z,2.30
2023-04-30T10:46:29.432Z,3.00
2023-04-30T10:48:57.276Z,2.20
2023-04-30T10:51:24.263Z,1.80
2023-04-30T10:53:53.028Z,2.00
2023-04-30T10:56:39.441Z,2.20
2023-04-30T10:59:08.355Z,2.20
2023-04-30T11:01:55.279Z,2.70
2023-04-30T11:04:22.474Z,2.80
2023-04-30T11:06:52.702Z,2.70
2023-04-30T11:09:20.487Z,2.80
2023-04-30T11:11:50.525Z,3.90
2023-04-30T11:14:20.854Z,2.90
2023-04-30T11:16:53.098Z,2.80
2023-04-30T11:19:20.021Z,2.30
2023-04-30T11:22:05.575Z,2.00
2023-04-30T11:24:54.626Z,2.80
2023-04-30T11:27:23.084Z,3.00
2023-04-30T11:29:51.565Z,2.30
2023-04-30T11:32:47.997Z,3.00
2023-04-30T11:35:18.423Z,3.90
2023-04-30T11:37:45.765Z,2.90
2023-04-30T11:40:13.633Z,3.20
2023-04-30T11:42:46.196Z,2.50
2023-04-30T11:47:47.989Z,1.60
2023-04-30T11:50:19.608Z,2.00
2023-04-30T11:52:50.700Z,2.10
2023-04-30T11:55:19.972Z,2.20
2023-04-30T11:57:49.387Z,1.80
2023-04-30T12:00:21.346Z,1.90
2023-04-30T12:02:49.960Z,1.70
2023-04-30T12:05:28.081Z,1.70
2023-04-30T12:08:06.495Z,2.10
2023-04-30T12:10:33.603Z,1.80
2023-04-30T12:13:00.681Z,1.70
2023-04-30T12:15:29.071Z,1.90
2023-04-30T12:17:57.110Z,2.20
2023-04-30T12:20:28.300Z,1.90
2023-04-30T12:22:55.470Z,1.90
2023-04-30T12:25:22.890Z,2.00
2023-04-30T12:27:52.041Z,2.10
2023-04-30T12:30:27.010Z,2.80
2023-04-30T12:32:56.646Z,2.10
2023-04-30T12:35:24.530Z,1.90
2023-04-30T12:37:53.902Z,2.00
2023-04-30T12:40:21.833Z,2.10
2023-04-30T12:42:49.171Z,2.50
2023-04-30T12:45:52.208Z,2.30
2023-04-30T12:48:21.639Z,2.80
2023-04-30T12:50:49.424Z,2.10
2023-04-30T12:53:16.485Z,2.40
2023-04-30T12:55:43.473Z,2.50
2023-04-30T12:58:11.685Z,2.00
2023-04-30T13:00:51.573Z,1.90
2023-04-30T13:03:20.193Z,2.60
2023-04-30T13:05:49.632Z,3.00
2023-04-30T13:08:17.028Z,2.40
2023-04-30T13:10:47.162Z,3.50
2023-04-30T13:13:15.619Z,3.40
2023-04-30T13:15:43.279Z,2.60
2023-04-30T13:18:10.721Z,3.00
2023-04-30T13:20:38.301Z,3.00
2023-04-30T13:23:08.305Z,3.20
2023-04-30T13:25:35.525Z,2.70
2023-04-30T13:28:02.790Z,2.50
2023-04-30T13:30:30.780Z,3.30
2023-04-30T13:32:58.950Z,2.90
2023-04-30T13:35:26.029Z,3.10
2023-04-30T13:37:54.466Z,2.50
2023-04-30T13:40:21.543Z,2.10
2023-04-30T13:42:49.221Z,2.10
2023-04-30T13:45:16.490Z,2.10
2023-04-30T13:47:43.636Z,2.00
2023-04-30T13:50:11.101Z,2.00
2023-04-30T13:52:40.085Z,2.10
2023-04-30T13:55:08.356Z,2.30
2023-04-30T13:57:35.343Z,2.60
2023-04-30T14:00:02.605Z,2.40
2023-04-30T14:02:35.152Z,2.10
2023-04-30T14:05:06.708Z,2.60
2023-04-30T14:07:34.796Z,2.40
2023-04-30T14:10:02.533Z,2.70
2023-04-30T14:12:30.787Z,2.20
2023-04-30T14:14:58.528Z,2.30
2023-04-30T14:17:27.128Z,2.70
2023-04-30T14:19:55.051Z,2.80
2023-04-30T14:22:23.033Z,2.60
2023-04-30T14:24:52.462Z,2.40
2023-04-30T14:27:19.474Z,2.40
2023-04-30T14:29:46.570Z,2.50
2023-04-30T14:32:14.289Z,2.70
2023-04-30T14:34:41.777Z,2.80
2023-04-30T14:37:08.975Z,2.90
2023-04-30T14:39:35.918Z,2.50
2023-04-30T14:42:03.663Z,2.60
2023-04-30T14:44:31.455Z,2.50
2023-04-30T14:46:58.433Z,2.40
2023-04-30T14:49:26.344Z,2.30
2023-04-30T14:51:54.712Z,2.90
2023-04-30T14:54:22.156Z,2.90
2023-04-30T14:56:49.303Z,2.40
2023-04-30T14:59:16.344Z,2.90
2023-04-30T15:01:43.381Z,2.80
2023-04-30T15:04:10.626Z,2.70
2023-04-30T15:06:40.573Z,2.70
2023-04-30T15:09:07.656Z,2.80
2023-04-30T15:11:34.687Z,3.00
2023-04-30T15:14:01.866Z,2.80
2023-04-30T15:16:29.829Z,3.20
2023-04-30T15:18:57.045Z,2.50
2023-04-30T15:21:24.147Z,3.50
2023-04-30T15:23:51.142Z,2.70
2023-04-30T15:26:20.706Z,3.70
2023-04-30T15:28:48.059Z,3.30
2023-04-30T15:31:17.457Z,2.80
2023-04-30T15:33:44.482Z,3.00
2023-04-30T15:36:11.821Z,3.90
2023-04-30T15:38:39.480Z,3.80
2023-04-30T15:41:07.344Z,5.90
2023-04-30T15:43:34.910Z,3.40
2023-04-30T15:46:02.003Z,2.60
2023-04-30T15:48:29.039Z,2.90
2023-04-30T15:50:57.030Z,3.20
2023-04-30T15:53:24.180Z,4.20
2023-04-30T15:55:51.205Z,3.90
2023-04-30T15:58:18.278Z,4.90
2023-04-30T16:00:45.457Z,3.80
2023-04-30T16:03:12.483Z,3.90
2023-04-30T16:05:40.612Z,4.70
2023-04-30T16:08:08.042Z,3.40
2023-04-30T16:10:35.012Z,3.90
2023-04-30T16:13:01.999Z,3.30
2023-04-30T16:15:30.428Z,2.90
2023-04-30T16:17:57.539Z,3.50
2023-04-30T16:20:24.661Z,3.90
2023-04-30T16:22:52.831Z,4.20
2023-04-30T16:25:20.893Z,4.50
2023-04-30T16:27:48.102Z,3.90
2023-04-30T16:30:15.149Z,4.10
2023-04-30T16:32:42.187Z,4.30
2023-04-30T16:35:09.609Z,3.80
2023-04-30T16:37:36.656Z,3.60
2023-04-30T16:40:03.882Z,3.70
2023-04-30T16:42:31.506Z,3.80
2023-04-30T16:44:59.439Z,4.60
2023-04-30T16:47:27.608Z,3.60
2023-04-30T16:49:58.909Z,3.90
2023-04-30T16:52:25.961Z,3.90
2023-04-30T16:54:53.010Z,5.10
2023-04-30T16:57:20.279Z,5.30
2023-04-30T16:59:47.478Z,11.30
2023-04-30T17:02:14.464Z,10.30
2023-04-30T17:04:41.531Z,9.10
2023-04-30T17:07:08.740Z,7.20
2023-04-30T17:09:37.548Z,7.50
2023-04-30T17:12:05.625Z,7.70
2023-04-30T17:14:32.710Z,7.40
2023-04-30T17:16:59.716Z,8.50
2023-04-30T17:19:26.800Z,8.40
2023-04-30T17:21:53.967Z,11.40
2023-04-30T17:24:21.195Z,11.30
2023-04-30T17:26:49.315Z,11.00
2023-04-30T17:29:16.788Z,10.30
2023-04-30T17:31:44.232Z,9.70
2023-04-30T17:34:12.514Z,8.60
2023-04-30T17:36:39.508Z,9.80
2023-04-30T17:39:06.597Z,10.40
2023-04-30T17:41:33.673Z,8.90
2023-04-30T17:44:00.973Z,10.00
2023-04-30T17:46:29.048Z,11.40
2023-04-30T17:48:56.068Z,14.70
2023-04-30T17:51:23.057Z,15.10
2023-04-30T17:53:50.367Z,15.60
2023-04-30T17:56:17.796Z,14.60
2023-04-30T17:58:46.000Z,14.30
2023-04-30T18:01:13.468Z,13.80
2023-04-30T18:03:40.651Z,15.40
2023-04-30T18:06:07.751Z,12.90
2023-04-30T18:08:35.280Z,13.80
2023-04-30T18:11:05.130Z,13.00
2023-04-30T18:13:32.879Z,13.20
2023-04-30T18:16:00.062Z,13.00
2023-04-30T18:18:29.064Z,14.00
2023-04-30T18:20:56.228Z,17.00
2023-04-30T18:23:23.449Z,17.20
2023-04-30T18:25:50.484Z,16.10
2023-04-30T18:28:17.560Z,16.40
2023-04-30T18:30:45.244Z,17.40
2023-04-30T18:33:12.746Z,17.90
2023-04-30T18:35:39.728Z,15.30
2023-04-30T18:38:08.365Z,15.30
2023-04-30T18:40:35.419Z,16.10
2023-04-30T18:43:02.420Z,15.10
2023-04-30T18:45:29.601Z,15.80
2023-04-30T18:47:56.932Z,16.50
2023-04-30T18:50:25.467Z,16.60
2023-04-30T18:52:52.512Z,15.90
2023-04-30T18:55:19.559Z,16.10
2023-04-30T18:57:46.550Z,16.50
2023-04-30T19:00:17.068Z,15.70
2023-04-30T19:02:44.353Z,16.00
2023-04-30T19:05:11.564Z,15.40
2023-04-30T19:07:39.984Z,16.90
2023-04-30T19:10:07.349Z,23.10
2023-04-30T19:12:34.413Z,22.80
2023-04-30T19:15:01.476Z,22.90
2023-04-30T19:17:30.665Z,21.70
2023-04-30T19:19:59.628Z,22.90
2023-04-30T19:22:26.590Z,21.60
2023-04-30T19:24:56.079Z,22.10
2023-04-30T19:27:23.188Z,21.20
2023-04-30T19:29:50.139Z,21.40
2023-04-30T19:32:17.405Z,22.70
2023-04-30T19:34:44.583Z,22.10
2023-04-30T19:37:11.789Z,22.40
2023-04-30T19:39:40.179Z,23.30
2023-04-30T19:42:10.234Z,25.40
2023-04-30T19:44:37.297Z,25.10
2023-04-30T19:47:05.153Z,27.00
2023-04-30T19:49:34.196Z,26.50
2023-04-30T19:52:01.826Z,26.50
2023-04-30T19:54:28.775Z,27.40
2023-04-30T19:56:55.887Z,26.60
2023-04-30T19:59:23.000Z,27.10
2023-04-30T20:01:50.455Z,26.30
2023-04-30T20:04:17.463Z,26.70
2023-04-30T20:06:45.088Z,28.00
2023-04-30T20:09:12.571Z,30.20
2023-04-30T20:11:39.569Z,29.10
2023-04-30T20:14:06.605Z,29.10
2023-04-30T20:16:34.128Z,29.20
2023-04-30T20:19:01.262Z,31.10
2023-04-30T20:21:29.221Z,31.30
2023-04-30T20:23:56.412Z,31.10
2023-04-30T20:26:25.916Z,29.90
2023-04-30T20:28:53.568Z,31.90
2023-04-30T20:31:21.520Z,34.10
2023-04-30T20:33:48.691Z,33.90
2023-04-30T20:36:16.885Z,31.40
2023-04-30T20:38:43.948Z,31.10
2023-04-30T20:41:10.960Z,30.10
2023-04-30T20:43:38.376Z,31.50
2023-04-30T20:46:06.467Z,32.60
2023-04-30T20:48:33.496Z,33.80
2023-04-30T20:51:00.627Z,35.90
2023-04-30T20:53:27.595Z,33.20
2023-04-30T20:55:59.930Z,34.50
2023-04-30T20:58:30.566Z,34.20
2023-04-30T21:00:57.612Z,33.00
2023-04-30T21:03:24.961Z,33.60
2023-04-30T21:05:52.024Z,34.00
2023-04-30T21:08:18.974Z,35.00
2023-04-30T21:10:46.056Z,33.40
2023-04-30T21:13:15.074Z,33.40
2023-04-30T21:15:43.197Z,33.10
2023-04-30T21:18:10.280Z,33.30
2023-04-30T21:20:37.878Z,32.80
2023-04-30T21:23:04.881Z,32.50
2023-04-30T21:25:31.850Z,31.10
2023-04-30T21:27:58.914Z,31.50
2023-04-30T21:30:26.527Z,33.10
2023-04-30T21:32:58.704Z,33.40
2023-04-30T21:35:27.764Z,32.90
2023-04-30T21:37:55.550Z,31.90
2023-04-30T21:40:22.550Z,33.20
2023-04-30T21:42:49.970Z,31.40
2023-04-30T21:45:17.024Z,31.50
2023-04-30T21:47:44.875Z,30.70
2023-04-30T21:50:12.391Z,28.70
2023-04-30T21:52:39.478Z,28.10
2023-04-30T21:55:07.877Z,28.70
2023-04-30T21:57:34.831Z,31.90
2023-04-30T22:00:01.942Z,33.60
2023-04-30T22:02:29.845Z,37.30
2023-04-30T22:04:57.260Z,38.90
2023-04-30T22:07:24.635Z,43.70
2023-04-30T22:09:54.637Z,39.70
2023-04-30T22:12:25.090Z,37.10
2023-04-30T22:14:55.302Z,37.00
2023-04-30T22:17:22.825Z,37.10
2023-04-30T22:19:49.895Z,37.10
2023-04-30T22:22:16.865Z,36.90
2023-04-30T22:24:43.813Z,35.60
2023-04-30T22:27:10.721Z,35.80
2023-04-30T22:29:37.718Z,35.20
2023-04-30T22:32:06.434Z,35.50
2023-04-30T22:34:38.882Z,36.70
2023-04-30T22:37:06.202Z,35.00
2023-04-30T22:39:33.182Z,36.10
2023-04-30T22:42:00.138Z,35.60
2023-04-30T22:44:27.053Z,37.60
2023-04-30T22:46:56.756Z,33.90
2023-04-30T22:49:31.759Z,31.30
2023-04-30T22:51:59.796Z,30.80
2023-04-30T22:54:26.831Z,27.60
2023-04-30T22:56:53.825Z,29.60
2023-04-30T22:59:20.753Z,30.10
2023-04-30T23:01:47.739Z,28.80
2023-04-30T23:04:14.730Z,27.50
2023-04-30T23:06:43.118Z,25.30
2023-04-30T23:09:10.330Z,25.00
2023-04-30T23:11:37.322Z,25.20
2023-04-30T23:14:04.875Z,27.10
2023-04-30T23:16:31.896Z,26.30
2023-04-30T23:18:59.116Z,25.50
2023-04-30T23:21:26.899Z,24.80
2023-04-30T23:23:53.937Z,24.10
2023-04-30T23:26:21.385Z,22.90
2023-04-30T23:28:48.562Z,21.20
2023-04-30T23:31:15.636Z,20.70
2023-04-30T23:33:42.588Z,21.10
2023-04-30T23:36:09.624Z,21.60
2023-04-30T23:38:36.590Z,20.80
2023-04-30T23:41:03.577Z,20.30
2023-04-30T23:43:31.640Z,20.40
2023-04-30T23:45:59.504Z,20.90
2023-04-30T23:48:26.510Z,19.80
2023-04-30T23:51:04.418Z,19.70
2023-04-30T23:53:31.499Z,20.00
2023-04-30T23:55:58.497Z,19.60
2023-04-30T23:58:25.889Z,20.30
